logo
Search for airport 
image banner adimage banner adimage banner ad
image banner ad

EDFN - Marburg-Schoenstadt

Located in Schoenstadt, Germany

ICAO - EDFN, IATA -

Data provided by Airmate  

General information

Coordinates: N50°52'28" E8°48'54"
Elevation is 833 feet MSL.
Magnetic variation is 3.0000° East
View others Airports in Hesse

Operational data

Special qualification required
Current time UTC:
Current local time:
Weather at : ETHF - Fritzlar ( 42 km )
METAR: ETHF 141520Z 25008KT 9999 FEW050 BKN260 23/10 Q1013 BLU+
View NOTAMs / SUP AIP / TFR affecting this airport [VIEW]
Communications frequencies: [VIEW]

Runways:

RWY identifierQFULength (ft)Width (ft)SurfaceLDA (ft)
0336°246198GRASS2461
21216°246198GRASS2461

Airport contact information

Address: Schoenstadt Germany

Other aviation service providers

Aviation club (not for profit)

Kurhessischer Verein Für Luftfahrt E.V.

Kurhessischer Verein Für Luftfahrt E.V.

Satellite view of EDFN